Wareham, MA (02571)

8:27 AM EST on December 18, 2014 (GMT -0500)
Wareham Middle School | Change Station
CLOSE
Current Station
Personal Weather Station
Location: Wareham, MA
Elevation: 13 ft
Nearby Weather Stations

Elev 13 ft 41.76 °N, 70.72 °W | Updated 7 minutes ago

Overcast
Overcast
36.5 °F
Feels Like 34 °F
N
3.4
Wind Variable Wind from West
Gusts 8.5 mph

Today
High -- | Low -- °F
--% Chance of Precip.
Yesterday
High -- | Low -- °F
Precip. -- in
7:04 AM 4:13 PM
Waning Crescent, 14% visible
Pressure 29.77 in
Visibility 10.0 miles
Clouds Mostly Cloudy 900 ft
Mostly Cloudy 1500 ft
Overcast 3800 ft
Windchill 34 °F
Dew Point 34 °F
Humidity 90%
Rainfall -999.00 in
Snow Depth Not available.
UV 0 out of 12
Pollen .10 out of 12
Air Quality Not available.
Flu Activity Not available.
METAR KPYM 181252Z AUTO 27008KT 10SM -RA BKN009 BKN015 OVC038 02/01 A2977 RMK AO2 SLP081 P0001 T00170006 $

More Conditions Fewer Conditions

Pressure 29.77 in
Visibility 10.0 miles
Clouds Mostly Cloudy 900 ft
Mostly Cloudy 1500 ft
Overcast 3800 ft
Windchill 34 °F
Dew Point 34 °F
Humidity 90%
Rainfall -999.00 in
Snow Depth Not available.
UV 0 out of 12
Pollen .10 out of 12
Air Quality Not available.
Flu Activity Not available.
METAR KPYM 181252Z AUTO 27008KT 10SM -RA BKN009 BKN015 OVC038 02/01 A2977 RMK AO2 SLP081 P0001 T00170006 $

More Conditions Fewer Conditions

10-Day Weather Forecast

Almanac

Astronomy

Dec. 18, 2014 Rise Set
Actual Time
Civil Twilight
Nautical Twilight
Astronomical Twilight
Moon
Length of Visible Light
Length of Day
Tomorrow will be .
, % of the Moon is Illuminated

Today's Extremes

State Highs State Lows

Community

WunderPhotos

Upload Photos

1,778,925 photos uploaded!

WunderBlogs® & News

Nearby

Air Quality

  Air Quality AQ Index Pollutant
Not available.

Snow Depth

Station Depth Elevation

Earthquake Activity

City Distance Mag. Time & Date
Minimum magnitude displayed is 2.5.

Coastal Water Temperatures

Place Temperature

Nearby Weather Stations